Tiempo atmosférico en la estación meteorológica de Alcalá del Júcar, Albacete (680 m.)



Fecha
DESCASC
Temp. máxima en grados centígrados (hora)
DESCASC
Temp. mínima en grados centígrados (hora)
DESCASC
Temp. media en grados centígrados
DESCASC
Racha de viento máxima en m/sg (hora)
DESCASC
Velocidad máxima media en intervalos de 10 minutos(hora)
DESCASC
Precipitaciones diarias en mm
DESCASC
Precipitaciones de 00:00 a 06:00 en mm
DESCASC
Precipitaciones de 06:00 a 12:00 en mm
DESCASC
Precipitaciones de 12:00 a 18:00 en mm
DESCASC
Precipitaciones de 18:00 a 24:00 en mm
DESCASC
06-12-2018 18.1 (16:50) 4.2 (08:20) 11.2 4.72 (17:00) 3.06 (17:00) 0 0 0 0 0
05-12-2018 18.9 (15:30) 2.3 (08:40) 10.6 3.89 (23:40) 1.67 (14:40) 0 0 0 0 0
04-12-2018 17.9 (15:30) 2 (08:40) 9.9 2.5 (04:00) 1.39 (03:40) 0 0 0 0 0
03-12-2018 14.1 (16:50) 3.5 (00:00) 8.8 7.5 (12:00) 4.72 (11:30) 0 0 0 0 0
02-12-2018 14.6 (16:00) 3.3 (00:00) 9 8.89 (13:20) 4.72 (13:20) 0 0 0 0 0
01-12-2018 12.3 (15:30) 0.7 (00:00) 6.5 9.72 (14:50) 5 (14:20) 0 0 0 0 0
30-11-2018 12.9 (15:30) 3 (00:00) 7.9 9.72 (14:10) 5.83 (12:50) 0.8 0.2 0.6 0 0
29-11-2018 16.6 (15:30) -0.6 (-00:0) 8 3.61 (15:50) 1.67 (04:20) 0 0 0 0 0
28-11-2018 15.1 (15:30) 1.1 (00:00) 8.1 6.67 (14:20) 3.89 (14:30) 0 0 0 0 0
27-11-2018 13.8 (15:30) 2.5 (00:00) 8.2 8.06 (13:20) 3.89 (13:30) 0 0 0 0 0
26-11-2018 11.7 (15:30) 5.3 (23:59) 8.5 19.17 (03:50) 9.17 (05:10) 3.2 3.2 0 0 0
25-11-2018 14.6 (14:10) 4.6 (00:00) 9.6 14.44 (14:40) 8.61 (14:20) 1.4 0 0.2 0.4 0.8
24-11-2018 12.1 (15:30) 1.2 (00:00) 6.7 8.89 (13:10) 4.44 (15:50) 0 0 0 0 0
23-11-2018 12.3 (14:50) 4.9 (00:00) 8.6 10 (15:00) 4.72 (14:40) 1.6 0.2 1.4 0 0
22-11-2018 12.1 (14:50) 6 (00:00) 9.1 3.89 (18:30) 2.22 (23:00) 0.2 0 0 0 0.2
21-11-2018 13.6 (14:20) 7.3 (00:00) 10.5 11.11 (04:00) 5.28 (01:20) 0 0 0 0 0
20-11-2018 12 (11:50) 7.4 (00:00) 9.7 11.67 (18:40) 6.39 (19:20) 13.4 0 0 13.4 0
19-11-2018 12.1 (13:50) 8.8 (00:00) 10.5 8.89 (01:20) 3.33 (01:00) 2.6 0 0.4 2 0.2
18-11-2018 12.1 (14:10) 9.4 (00:00) 10.8 7.78 (16:40) 3.06 (17:40) 1 0 0 0 1
17-11-2018 15.2 (14:40) 10.2 (00:00) 12.7 5.83 (11:20) 2.5 (11:20) 0 0 0 0 0
16-11-2018 16 (15:40) 10.8 (00:00) 13.4 7.78 (16:20) 3.89 (16:10) 0 0 0 0 0
15-11-2018 14.5 (14:40) 11.3 (00:00) 12.9 10 (02:50) 4.17 (02:50) 2.2 0 2 0.2 0
14-11-2018 15.8 (13:50) 11.2 (00:00) 13.5 8.06 (15:10) 3.61 (13:50) 0 0 0 0 0
13-11-2018 15.5 (15:10) 9.2 (00:00) 12.3 7.5 (16:00) 3.33 (11:50) 0 0 0 0 0
12-11-2018 17.1 (14:30) 5.6 (00:00) 11.4 8.06 (15:30) 3.61 (12:10) 0 0 0 0 0
11-11-2018 20.6 (15:50) 9.1 (00:00) 14.9 7.78 (09:10) 4.17 (09:10) 0 0 0 0 0
10-11-2018 13 (13:50) 7.5 (00:00) 10.3 10.56 (13:50) 5.56 (14:00) 0 0 0 0 0
09-11-2018 11.8 (15:30) 5.7 (00:00) 8.8 12.78 (16:20) 7.22 (14:20) 3.6 3.6 0 0 0

Gráficas

Temp. máximas Temp. mínimas Temp. medias Precipitaciones Rachas de viento máximas Velocidades máximas media en intervalos de 10 minutos

Datos horarios

Fecha y hora oficial Temperatura (ºC) Velocidad del viento (km/h) Dirección del viento Racha (km/h) Dirección de racha Precipitación (mm) Presión (hPa) Tendencia (hPa) Humedad (%)
2018-12-08 23:00:00 7 5 Oeste 11 Sudoeste 0 -- -- 82
2018-12-08 22:00:00 7.6 5 Sudoeste 15 Oeste 0 -- -- 82
2018-12-08 21:00:00 8.3 7 Sudoeste 15 Sudoeste 0 -- -- 81
2018-12-08 20:00:00 9.2 8 Oeste 14 Oeste 0 -- -- 78
2018-12-08 19:00:00 10.8 4 Sudoeste 19 Oeste 0 -- -- 73
2018-12-08 18:00:00 12.3 10 Oeste 18 Oeste 0 -- -- 68
2018-12-08 17:00:00 14.3 8 Sudoeste 19 Oeste 0 -- -- 60
2018-12-08 16:00:00 14.9 8 Oeste 15 Oeste 0 -- -- 58
2018-12-08 15:00:00 14.8 4 Oeste 13 Oeste 0 -- -- 56
2018-12-08 14:00:00 13.2 4 Oeste 14 Oeste 0 -- -- 67
2018-12-08 13:00:00 11 4 Oeste 17 Oeste 0 -- -- 78
2018-12-08 12:00:00 8.4 6 Oeste 17 Oeste 0 -- -- 86
2018-12-08 11:00:00 6.2 6 Sudoeste 13 Oeste 0 -- -- 95
2018-12-08 10:00:00 5.1 3 Sudoeste 14 Oeste 0 -- -- 96
2018-12-08 09:00:00 4.4 6 Oeste 13 Sudoeste 0 -- -- 95
2018-12-08 08:00:00 4.3 7 Oeste 12 Oeste 0 -- -- 95
2018-12-08 07:00:00 4.8 6 Oeste 12 Oeste 0 -- -- 94
2018-12-08 06:00:00 5.3 7 Oeste 15 Sudoeste 0 -- -- 94
2018-12-08 05:00:00 5.7 9 Oeste 15 Oeste 0 -- -- 93
2018-12-08 04:00:00 6 8 Oeste 14 Oeste 0 -- -- 92
2018-12-08 03:00:00 6.4 8 Oeste 12 Oeste 0 -- -- 91
2018-12-08 02:00:00 6.8 6 Sudoeste 14 Oeste 0 -- -- 90
2018-12-08 01:00:00 7.2 7 Oeste 14 Oeste 0 -- -- 88
2018-12-08 00:00:00 7.6 5 Oeste 10 Oeste 0 -- -- 84
2018-12-07 23:00:00 7.6 4 Oeste 6 Oeste 0 -- -- 83
2018-12-07 22:00:00 8.6 4 Oeste 9 Oeste 0 -- -- 77
2018-12-07 21:00:00 9.6 5 Oeste 12 Oeste 0 -- -- 73
2018-12-07 20:00:00 10.1 8 Oeste 15 Oeste 0 -- -- 72
2018-12-07 19:00:00 11 10 Oeste 21 Oeste 0 -- -- 69
2018-12-07 18:00:00 12.3 15 Oeste 26 Oeste 0 -- -- 65
2018-12-07 17:00:00 14.2 12 Oeste 24 Oeste 0 -- -- 57
2018-12-07 16:00:00 14.6 14 Oeste 30 Oeste 0 -- -- 55
2018-12-07 15:00:00 13.5 12 Sudoeste 25 Oeste 0 -- -- 63
2018-12-07 14:00:00 11.4 10 Oeste 22 Oeste 0 -- -- 77
2018-12-07 13:00:00 8.4 12 Oeste 20 Oeste 0 -- -- 97
2018-12-07 12:00:00 6 10 Oeste 15 Sudoeste 0 -- -- 97
2018-12-07 11:00:00 4.3 8 Oeste 15 Oeste 0 -- -- 97
2018-12-07 10:00:00 2.4 8 Oeste 15 Oeste 0 -- -- 97
2018-12-07 09:00:00 1.5 0 Calma 6 Oeste 0 -- -- 96
2018-12-07 08:00:00 1.4 2 Oeste 7 Noroeste 0 -- -- 95
2018-12-07 07:00:00 2.2 2 Sudoeste 8 Oeste 0 -- -- 94
2018-12-07 06:00:00 2.8 4 Noroeste 9 Noroeste 0 -- -- 92
2018-12-07 05:00:00 3.9 4 Oeste 8 Oeste 0 -- -- 92
2018-12-07 04:00:00 4.7 4 Oeste 9 Noroeste 0 -- -- 91
2018-12-07 03:00:00 5.3 6 Oeste 10 Oeste 0 -- -- 90
2018-12-07 02:00:00 5.9 5 Oeste 10 Sudoeste 0 -- -- 90
2018-12-07 01:00:00 6.9 4 Oeste 8 Sudoeste 0 -- -- 88
2018-12-07 00:00:00 7.7 5 Oeste 15 Oeste 0 -- -- 86
2018-12-06 23:00:00 8.5 9 Oeste 15 Oeste 0 -- -- 84
2018-12-06 22:00:00 9.4 8 Oeste 12 Sudoeste 0 -- -- 81
2018-12-06 21:00:00 10.1 3 Sudoeste 10 Oeste 0 -- -- 79
2018-12-06 20:00:00 11.1 3 Sudeste 14 Oeste 0 -- -- 75
2018-12-06 19:00:00 13 8 Sudoeste 17 Sudoeste 0 -- -- 70
2018-12-06 18:00:00 15.4 5 Sudoeste 17 Oeste 0 -- -- 61
2018-12-06 17:00:00 17.8 11 Oeste 17 Oeste 0 -- -- 53
2018-12-06 16:00:00 17.3 7 Sudoeste 16 Oeste 0 -- -- 59
2018-12-06 15:00:00 16.4 6 Sudoeste 14 Sudoeste 0 -- -- 59
2018-12-06 14:00:00 14.9 6 Sudoeste 15 Sudoeste 0 -- -- 63
2018-12-06 13:00:00 12.6 5 Oeste 15 Oeste 0 -- -- 70
2018-12-06 12:00:00 10.9 8 Oeste 17 Oeste 0 -- -- 77
2018-12-06 11:00:00 9 6 Oeste 15 Oeste 0 -- -- 83
2018-12-06 10:00:00 6.4 8 Oeste 15 Sudoeste 0 -- -- 90
2018-12-06 09:00:00 4.7 6 Oeste 10 Oeste 0 -- -- 93
2018-12-06 08:00:00 4.6 4 Oeste 14 Oeste 0 -- -- 91
2018-12-06 07:00:00 5.4 7 Oeste 15 Sudoeste 0 -- -- 91
2018-12-06 06:00:00 5.6 9 Oeste 15 Oeste 0 -- -- 91
2018-12-06 05:00:00 5 6 Oeste 13 Oeste 0 -- -- 89
2018-12-06 04:00:00 6.2 6 Oeste 15 Oeste 0 -- -- 87
2018-12-06 03:00:00 5.7 4 Sudoeste 6 Oeste 0 -- -- 89
2018-12-06 02:00:00 6.4 0 Calma 12 Oeste 0 -- -- 86
2018-12-06 01:00:00 7.7 3 Sudoeste 13 Oeste 0 -- -- 83
2018-12-06 00:00:00 8.3 3 Oeste 14 Sudoeste 0 -- -- 82
2018-12-05 23:00:00 8.6 4 Oeste 9 Oeste 0 -- -- 81
2018-12-05 22:00:00 9.2 3 Sudoeste 10 Oeste 0 -- -- 80
2018-12-05 21:00:00 10.1 5 Norte 10 Oeste 0 -- -- 74
2018-12-05 20:00:00 12.6 4 Oeste 9 Oeste 0 -- -- 70
2018-12-05 19:00:00 12.8 3 Oeste 6 Oeste 0 -- -- 71
2018-12-05 18:00:00 14.8 0 Calma 5 Sudoeste 0 -- -- 63
2018-12-05 17:00:00 17.8 3 Oeste 9 Noroeste 0 -- -- 55
2018-12-05 16:00:00 18.6 3 Oeste 10 Oeste 0 -- -- 54
2018-12-05 15:00:00 18 6 Oeste 13 Oeste 0 -- -- 56
2018-12-05 14:00:00 15.5 5 Sudoeste 10 Oeste 0 -- -- 64
2018-12-05 13:00:00 12.4 3 Oeste 9 Sudoeste 0 -- -- 75
2018-12-05 12:00:00 9.6 3 Sudoeste 9 Oeste 0 -- -- 82
2018-12-05 11:00:00 6.7 3 Oeste 6 Oeste 0 -- -- 89
2018-12-05 10:00:00 3.8 3 Oeste 5 Oeste 0 -- -- 95
2018-12-05 09:00:00 2.3 0 Calma 3 Noroeste 0 -- -- 94
2018-12-05 08:00:00 2.4 0 Calma 5 Noroeste 0 -- -- 93
2018-12-05 07:00:00 3 3 Noroeste 4 Noroeste 0 -- -- 93
2018-12-05 06:00:00 3.4 0 Calma 2 Sudeste 0 -- -- 93
2018-12-05 05:00:00 3.8 0 Calma 3 Noroeste 0 -- -- 92
2018-12-05 04:00:00 4.3 2 Noroeste 3 Noroeste 0 -- -- 92
2018-12-05 03:00:00 4.8 0 Calma 0 Calma 0 -- -- 91
2018-12-05 02:00:00 5.4 0 Calma 2 Noroeste 0 -- -- 91
2018-12-05 01:00:00 5.8 2 Norte 3 Norte 0 -- -- 90
2018-12-05 00:00:00 6.5 2 Noroeste 3 Norte 0 -- -- 89
2018-12-04 23:00:00 7.3 0 Calma 2 Norte 0 -- -- 86
2018-12-04 22:00:00 8.3 0 Calma 3 Nordeste 0 -- -- 87
2018-12-04 21:00:00 9.2 0 Calma 3 Este 0 -- -- 84
2018-12-04 20:00:00 10.2 0 Calma 2 Sudeste 0 -- -- 79
2018-12-04 19:00:00 11.7 0 Calma 2 Sudeste 0 -- -- 74
2018-12-04 18:00:00 14.1 0 Calma 3 Oeste 0 -- -- 68
2018-12-04 17:00:00 17.6 2 Sudoeste 4 Oeste 0 -- -- 58
2018-12-04 16:00:00 17.5 0 Calma 5 Norte 0 -- -- 59
2018-12-04 15:00:00 16.7 3 Sudoeste 8 Sudoeste 0 -- -- 57
2018-12-04 14:00:00 14.4 0 Calma 7 Oeste 0 -- -- 65
2018-12-04 13:00:00 11.5 3 Sudoeste 6 Sudoeste 0 -- -- 72
2018-12-04 12:00:00 8.5 3 Oeste 8 Oeste 0 -- -- 82
2018-12-04 11:00:00 6.1 3 Sudoeste 6 Oeste 0 -- -- 89
2018-12-04 10:00:00 3.5 2 Sudoeste 5 Sudoeste 0 -- -- 94
2018-12-04 09:00:00 2.2 0 Calma 5 Noroeste 0 -- -- 93
2018-12-04 08:00:00 2.3 2 Noroeste 5 Noroeste 0 -- -- 92
2018-12-04 07:00:00 2.8 2 Oeste 6 Oeste 0 -- -- 93
2018-12-04 06:00:00 3.1 4 Oeste 6 Oeste 0 -- -- 92
2018-12-04 05:00:00 3.7 4 Oeste 9 Noroeste 0 -- -- 92
2018-12-04 04:00:00 3.8 5 Noroeste 9 Oeste 0 -- -- 88
2018-12-04 03:00:00 5.1 4 Noroeste 9 Noroeste 0 -- -- 87
2018-12-04 02:00:00 5.6 5 Oeste 8 Oeste 0 -- -- 86
2018-12-04 01:00:00 6.2 2 Oeste 6 Oeste 0 -- -- 86
2018-12-04 00:00:00 7 3 Sudoeste 9 Oeste 0 -- -- 85
2018-12-03 23:00:00 7.3 2 Oeste 13 Oeste 0 -- -- 84
2018-12-03 22:00:00 8.1 9 Oeste 15 Oeste 0 -- -- 82
2018-12-03 21:00:00 8.6 4 Sudoeste 15 Sudoeste 0 -- -- 78
2018-12-03 20:00:00 9.2 8 Oeste 15 Sudoeste 0 -- -- 73
2018-12-03 19:00:00 10.3 6 Sudoeste 17 Oeste 0 -- -- 66
2018-12-03 18:00:00 12 6 Oeste 18 Oeste 0 -- -- 64
2018-12-03 17:00:00 14 12 Oeste 22 Oeste 0 -- -- 55
2018-12-03 16:00:00 13.4 6 Sudoeste 18 Oeste 0 -- -- 66
2018-12-03 15:00:00 12.2 8 Sudoeste 18 Oeste 0 -- -- 71
2018-12-03 14:00:00 9.5 9 Sudoeste 21 Sudoeste 0 -- -- 80
2018-12-03 13:00:00 6.9 12 Sudoeste 24 Sudoeste 0 -- -- 87
2018-12-03 12:00:00 5.4 15 Oeste 27 Oeste 0 -- -- 93
2018-12-03 11:00:00 4 13 Oeste 24 Oeste 0 -- -- 96
2018-12-03 10:00:00 3.5 11 Oeste 21 Oeste 0 -- -- 94
2018-12-03 09:00:00 4.4 12 Oeste 23 Oeste 0 -- -- 92
2018-12-03 08:00:00 5.3 12 Oeste 18 Oeste 0 -- -- 88
2018-12-03 07:00:00 5.7 4 Oeste 9 Oeste 0 -- -- 88
2018-12-03 06:00:00 6.2 5 Oeste 12 Oeste 0 -- -- 87
2018-12-03 05:00:00 5.9 5 Sudoeste 12 Sudoeste 0 -- -- 89
2018-12-03 04:00:00 5.7 5 Oeste 9 Oeste 0 -- -- 88
2018-12-03 03:00:00 5.6 0 Calma 10 Oeste 0 -- -- 88
2018-12-03 02:00:00 5.4 3 Noroeste 8 Oeste 0 -- -- 87
2018-12-03 01:00:00 6.1 5 Noroeste 12 Oeste 0 -- -- 85
2018-12-03 00:00:00 6.7 8 Oeste 12 Oeste 0 -- -- 85
2018-12-02 23:00:00 6.7 5 Oeste 7 Oeste 0 -- -- 80
2018-12-02 22:00:00 7.7 3 Oeste 7 Oeste 0 -- -- 76
2018-12-02 21:00:00 8.4 0 Calma 5 Sudoeste 0 -- -- 74
2018-12-02 20:00:00 10.1 3 Sur 10 Oeste 0 -- -- 69
2018-12-02 19:00:00 11.1 5 Oeste 13 Oeste 0 -- -- 64
2018-12-02 18:00:00 12.3 6 Oeste 17 Oeste 0 -- -- 62
2018-12-02 17:00:00 14 10 Oeste 24 Oeste 0 -- -- 58
2018-12-02 16:00:00 14.6 12 Oeste 23 Oeste 0 -- -- 53
2018-12-02 15:00:00 13.4 12 Oeste 30 Oeste 0 -- -- 59
2018-12-02 14:00:00 13 14 Oeste 32 Oeste 0 -- -- 63
2018-12-02 13:00:00 12.1 15 Oeste 27 Sudoeste 0 -- -- 67
2018-12-02 12:00:00 10.4 14 Oeste 28 Oeste 0 -- -- 74
2018-12-02 11:00:00 8.7 10 Oeste 23 Oeste 0 -- -- 81
2018-12-02 10:00:00 6.3 10 Oeste 16 Oeste 0 -- -- 86
2018-12-02 09:00:00 4.4 6 Oeste 12 Oeste 0 -- -- 93
2018-12-02 08:00:00 3.3 0 Calma 11 Oeste 0 -- -- 91
2018-12-02 07:00:00 3.8 7 Oeste 11 Oeste 0 -- -- 91
2018-12-02 06:00:00 4.2 5 Oeste 11 Oeste 0 -- -- 91
2018-12-02 05:00:00 4.1 7 Oeste 14 Oeste 0 -- -- 91
2018-12-02 04:00:00 4.2 7 Oeste 12 Oeste 0 -- -- 90
2018-12-02 03:00:00 4.4 6 Oeste 12 Oeste 0 -- -- 89
2018-12-02 02:00:00 4.5 7 Oeste 12 Oeste 0 -- -- 89
2018-12-02 01:00:00 5 9 Oeste 13 Oeste 0 -- -- 87
2018-12-02 00:00:00 5.5 6 Oeste 10 Oeste 0 -- -- 85
2018-12-01 23:00:00 6 0 Calma 6 Oeste 0 -- -- 84
2018-12-01 22:00:00 6.8 6 Oeste 12 Oeste 0 -- -- 81
2018-12-01 21:00:00 7.2 5 Oeste 13 Oeste 0 -- -- 79
2018-12-01 20:00:00 8.1 7 Oeste 21 Noroeste 0 -- -- 75
2018-12-01 19:00:00 9.1 10 Oeste 23 Oeste 0 -- -- 70
2018-12-01 18:00:00 9.7 11 Oeste 17 Oeste 0 -- -- 68
2018-12-01 17:00:00 10.5 5 Oeste 29 Sudoeste 0 -- -- 65
2018-12-01 16:00:00 11.9 14 Oeste 28 Noroeste 0 -- -- 57
2018-12-01 15:00:00 11.1 13 Oeste 35 Noroeste 0 -- -- 60
2018-12-01 14:00:00 11.6 17 Oeste 31 Noroeste 0 -- -- 60
2018-12-01 13:00:00 8.8 9 Sudoeste 25 Oeste 0 -- -- 71
2018-12-01 12:00:00 6.7 6 Oeste 14 Sudoeste 0 -- -- 80
2018-12-01 11:00:00 3.9 8 Sudoeste 17 Sudoeste 0 -- -- 83
2018-12-01 10:00:00 2.1 6 Sudoeste 14 Oeste 0 -- -- 89
2018-12-01 09:00:00 1.3 8 Sudoeste 16 Oeste 0 -- -- 91
2018-12-01 08:00:00 0.9 6 Oeste 15 Oeste 0 -- -- 92
2018-12-01 07:00:00 0.7 6 Oeste 14 Oeste 0 -- -- 92
2018-12-01 06:00:00 0.7 7 Oeste 12 Oeste 0 -- -- 91
2018-12-01 05:00:00 1 5 Oeste 10 Oeste 0 -- -- 90
2018-12-01 04:00:00 1.4 3 Oeste 8 Oeste 0 -- -- 89
2018-12-01 03:00:00 1.9 3 Oeste 6 Sudoeste 0 -- -- 87
2018-12-01 02:00:00 2.3 3 Oeste 12 Sudoeste 0 -- -- 87
2018-12-01 01:00:00 2.7 3 Oeste 9 Oeste 0 -- -- 84
2018-12-01 00:00:00 3 4 Sudoeste 9 Sudoeste 0 -- -- 85
2018-11-30 23:00:00 3.5 6 Oeste 14 Oeste 0 -- -- 83
2018-11-30 22:00:00 4.6 6 Oeste 13 Oeste 0 -- -- 79
2018-11-30 21:00:00 5.6 3 Oeste 10 Oeste 0 -- -- 75
2018-11-30 20:00:00 6.7 6 Oeste 11 Sudoeste 0 -- -- 70
2018-11-30 19:00:00 7.5 8 Noroeste 18 Noroeste 0 -- -- 67
2018-11-30 18:00:00 9 7 Oeste 19 Oeste 0 -- -- 61
2018-11-30 17:00:00 11.5 14 Noroeste 26 Noroeste 0 -- -- 53
2018-11-30 16:00:00 12.3 14 Noroeste 34 Noroeste 0 -- -- 48
2018-11-30 15:00:00 12 19 Noroeste 35 Oeste 0 -- -- 57
2018-11-30 14:00:00 11.8 18 Oeste 35 Oeste 0 -- -- 66
2018-11-30 13:00:00 10.5 19 Noroeste 34 Oeste 0 -- -- 70
2018-11-30 12:00:00 9.9 17 Noroeste 31 Noroeste 0 -- -- 80
2018-11-30 11:00:00 8.3 9 Noroeste 18 Noroeste 0 -- -- 88
2018-11-30 10:00:00 6.7 0 Calma 8 Oeste 0.2 -- -- 93
2018-11-30 09:00:00 6.3 0 Calma 4 Oeste 0.2 -- -- 93
2018-11-30 08:00:00 6.2 2 Noroeste 6 Sudoeste 0.2 -- -- 91
2018-11-30 07:00:00 6 2 Oeste 10 Oeste 0 -- -- 90
2018-11-30 06:00:00 5.4 6 Oeste 10 Oeste 0.2 -- -- 89
2018-11-30 05:00:00 5.4 5 Oeste 10 Oeste 0 -- -- 86
2018-11-30 04:00:00 4.9 5 Oeste 10 Oeste 0 -- -- 83
2018-11-30 03:00:00 4.7 5 Oeste 9 Oeste 0 -- -- 78
2018-11-30 02:00:00 5.1 5 Oeste 6 Oeste 0 -- -- 76
2018-11-30 01:00:00 5.9 0 Calma 7 Oeste 0 -- -- 72
2018-11-30 00:00:00 6.4 4 Oeste 8 Oeste 0 -- -- 70
2018-11-29 23:00:00 6.3 5 Oeste 10 Oeste 0 -- -- 69
2018-11-29 22:00:00 6.6 3 Oeste 6 Oeste 0 -- -- 67
2018-11-29 21:00:00 7 3 Oeste 6 Oeste 0 -- -- 67
2018-11-29 20:00:00 8.2 2 Oeste 6 Oeste 0 -- -- 61
2018-11-29 19:00:00 9.7 2 Sudoeste 6 Oeste 0 -- -- 57
2018-11-29 18:00:00 11.7 3 Oeste 8 Sudoeste 0 -- -- 49
2018-11-29 17:00:00 14.6 5 Oeste 10 Oeste 0 -- -- 40
2018-11-29 16:00:00 16 4 Sudoeste 13 Oeste 0 -- -- 35
2018-11-29 15:00:00 15.6 5 Sudoeste 9 Oeste 0 -- -- 39
2018-11-29 14:00:00 13.2 4 Noroeste 8 Norte 0 -- -- 48
2018-11-29 13:00:00 9.7 3 Oeste 9 Sudoeste 0 -- -- 58
2018-11-29 12:00:00 7 3 Sudoeste 12 Oeste 0 -- -- 69
2018-11-29 11:00:00 4.4 5 Oeste 9 Oeste 0 -- -- 71
2018-11-29 10:00:00 2 4 Oeste 10 Oeste 0 -- -- 84
2018-11-29 09:00:00 -0.3 0 Calma 6 Sudoeste 0 -- -- 90
2018-11-29 08:00:00 -0.5 3 Oeste 8 Oeste 0 -- -- 90
2018-11-29 07:00:00 -0.6 2 Sudoeste 6 Oeste 0 -- -- 90
2018-11-29 06:00:00 -0.1 4 Noroeste 8 Noroeste 0 -- -- 88
2018-11-29 05:00:00 0.2 0 Calma 9 Noroeste 0 -- -- 84
2018-11-29 04:00:00 1.2 4 Noroeste 7 Noroeste 0 -- -- 84
2018-11-29 03:00:00 2 3 Noroeste 8 Oeste 0 -- -- 83
2018-11-29 02:00:00 3 4 Oeste 9 Oeste 0 -- -- 80
2018-11-29 01:00:00 3.8 2 Noroeste 7 Oeste 0 -- -- 77
2018-11-29 00:00:00 4.7 3 Oeste 7 Oeste 0 -- -- 74
2018-11-28 23:00:00 5.5 4 Oeste 9 Oeste 0 -- -- 70
2018-11-28 22:00:00 5.9 6 Oeste 12 Oeste 0 -- -- 68
2018-11-28 21:00:00 7 4 Oeste 12 Oeste 0 -- -- 68
2018-11-28 14:00:00 -- -- -- -- -- -- -- -- --
2018-11-28 13:00:00 -- -- -- -- -- -- -- -- --
2018-11-28 12:00:00 -- -- -- -- -- -- -- -- --
2018-11-28 11:00:00 6.4 10 Oeste 18 Oeste 0 -- -- 80
2018-11-28 10:00:00 3.3 5 Oeste 14 Oeste 0 -- -- 89
2018-11-28 09:00:00 1.4 4 Sudoeste 15 Oeste 0 -- -- 92
2018-11-28 08:00:00 1.4 7 Oeste 14 Oeste 0 -- -- 91
2018-11-28 07:00:00 1.2 5 Oeste 11 Sudoeste 0 -- -- 93
2018-11-28 06:00:00 1.9 4 Oeste 9 Oeste 0 -- -- 91
2018-11-28 05:00:00 2.4 3 Oeste 9 Oeste 0 -- -- 91
2018-11-28 04:00:00 2.7 0 Calma 5 Oeste 0 -- -- 89
2018-11-28 03:00:00 3.5 2 Oeste 5 Sudoeste 0 -- -- 88
2018-11-28 02:00:00 3.6 2 Noroeste 5 Oeste 0 -- -- 88
2018-11-28 01:00:00 4.3 3 Oeste 5 Sudoeste 0 -- -- 86
2018-11-28 00:00:00 4.6 5 Sudoeste 10 Oeste 0 -- -- 87
2018-11-27 23:00:00 5.2 4 Sudoeste 9 Oeste 0 -- -- 84
2018-11-27 22:00:00 6 5 Oeste 11 Oeste 0 -- -- 82
2018-11-27 21:00:00 6.7 7 Oeste 12 Oeste 0 -- -- 80
2018-11-27 20:00:00 7.6 4 Sudoeste 14 Oeste 0 -- -- 77
2018-11-27 19:00:00 9.1 8 Oeste 13 Oeste 0 -- -- 71
2018-11-27 18:00:00 10 6 Oeste 18 Noroeste 0 -- -- 68
2018-11-27 17:00:00 12.4 11 Noroeste 22 Oeste 0 -- -- 57
2018-11-27 16:00:00 13.4 13 Noroeste 24 Oeste 0 -- -- 55
2018-11-27 15:00:00 13.1 11 Oeste 26 Oeste 0 -- -- 58
2018-11-27 14:00:00 11.7 14 Noroeste 29 Noroeste 0 -- -- 63
2018-11-27 13:00:00 10.2 13 Oeste 21 Sudoeste 0 -- -- 67
2018-11-27 12:00:00 8.2 10 Oeste 19 Oeste 0 -- -- 75
2018-11-27 11:00:00 6.6 9 Oeste 21 Oeste 0 -- -- 79
2018-11-27 10:00:00 5.1 10 Oeste 21 Oeste 0 -- -- 84
2018-11-27 09:00:00 3.3 10 Oeste 22 Oeste 0 -- -- 90
2018-11-27 08:00:00 2.6 6 Sudoeste 17 Sudoeste 0 -- -- 90
2018-11-27 07:00:00 2.6 6 Oeste 12 Sudoeste 0 -- -- 90
2018-11-27 06:00:00 2.9 7 Oeste 17 Oeste 0 -- -- 90
2018-11-27 05:00:00 3.2 8 Oeste 17 Oeste 0 -- -- 89
2018-11-27 04:00:00 3.6 11 Oeste 22 Oeste 0 -- -- 88
2018-11-27 03:00:00 4.1 9 Oeste 13 Oeste 0 -- -- 86
2018-11-27 02:00:00 4.5 8 Oeste 14 Oeste 0 -- -- 84
2018-11-27 01:00:00 4.9 9 Oeste 16 Oeste 0 -- -- 84
2018-11-27 00:00:00 5.3 9 Oeste 15 Oeste 0 -- -- 82
2018-11-26 23:00:00 5.8 7 Oeste 19 Oeste 0 -- -- 82
2018-11-26 22:00:00 6.4 10 Oeste 22 Oeste 0 -- -- 78
2018-11-26 21:00:00 6.8 10 Oeste 20 Oeste 0 -- -- 75
2018-11-26 20:00:00 7.4 11 Oeste 22 Oeste 0 -- -- 73
2018-11-26 19:00:00 8 6 Oeste 14 Noroeste 0 -- -- 71
2018-11-26 18:00:00 8.7 7 Oeste 27 Noroeste 0 -- -- 71
2018-11-26 17:00:00 10.8 15 Noroeste 27 Oeste 0 -- -- 66
2018-11-26 16:00:00 10.8 17 Noroeste 45 Noroeste 0 -- -- 65
2018-11-26 15:00:00 11 23 Noroeste 48 Noroeste 0 -- -- 66
2018-11-26 14:00:00 11.1 28 Noroeste 50 Noroeste 0 -- -- 63
2018-11-26 13:00:00 9.8 30 Noroeste 56 Noroeste 0 -- -- 66
2018-11-26 12:00:00 9.7 29 Noroeste 60 Noroeste 0 -- -- 69
2018-11-26 11:00:00 8.5 29 Noroeste 54 Oeste 0 -- -- 71
2018-11-26 10:00:00 7.7 27 Noroeste 47 Noroeste 0 -- -- 73
2018-11-26 09:00:00 6.4 25 Noroeste 44 Noroeste 0 -- -- 77
2018-11-26 08:00:00 6.4 25 Noroeste 51 Noroeste 0 -- -- 75
2018-11-26 07:00:00 6.9 26 Noroeste 56 Noroeste 0 -- -- 72
2018-11-26 06:00:00 8.7 22 Oeste 65 Noroeste 0 -- -- 80
2018-11-26 05:00:00 10.1 28 Oeste 56 Oeste 0 -- -- 76
2018-11-26 04:00:00 11.1 27 Oeste 69 Oeste 0 -- -- 77
2018-11-26 03:00:00 10.9 12 Oeste 28 Oeste 0.2 -- -- 91
2018-11-26 02:00:00 10.3 12 Sudoeste 28 Oeste 0.8 -- -- 93
2018-11-26 01:00:00 10.2 12 Oeste 26 Oeste 2.2 -- -- 94
2018-11-26 00:00:00 10.4 13 Oeste 24 Sudoeste 0.8 -- -- 94
2018-11-25 23:00:00 10.5 9 Oeste 22 Sudoeste 0 -- -- 88
2018-11-25 22:00:00 10.5 13 Oeste 22 Oeste 0 -- -- 86
2018-11-25 21:00:00 11.1 12 Oeste 25 Oeste 0 -- -- 85
2018-11-25 20:00:00 11.2 13 Oeste 24 Sudoeste 0 -- -- 83
2018-11-25 19:00:00 11.9 13 Oeste 34 Oeste 0 -- -- 79
2018-11-25 18:00:00 12.4 16 Oeste 32 Oeste 0 -- -- 79
2018-11-25 17:00:00 12 12 Oeste 36 Oeste 0.2 -- -- 85
2018-11-25 16:00:00 12.9 19 Oeste 40 Oeste 0.2 -- -- 82
2018-11-25 15:00:00 14 22 Oeste 52 Oeste 0 -- -- 69
2018-11-25 14:00:00 14.3 29 Oeste 51 Oeste 0 -- -- 67
2018-11-25 13:00:00 13 25 Oeste 47 Oeste 0 -- -- 74
2018-11-25 12:00:00 12.4 21 Oeste 37 Oeste 0 -- -- 77
2018-11-25 11:00:00 11.3 17 Oeste 47 Oeste 0 -- -- 80
2018-11-25 10:00:00 9.7 17 Oeste 35 Sudoeste 0 -- -- 85
2018-11-25 09:00:00 8 14 Oeste 24 Oeste 0 -- -- 88
2018-11-25 08:00:00 6.2 5 Oeste 15 Oeste 0 -- -- 92
2018-11-25 07:00:00 5.5 8 Oeste 13 Oeste 0.2 -- -- 91
2018-11-25 06:00:00 5.1 5 Oeste 10 Oeste 0 -- -- 89
2018-11-25 05:00:00 4.8 7 Oeste 13 Oeste 0 -- -- 88
2018-11-25 04:00:00 4.8 4 Oeste 8 Oeste 0 -- -- 87
2018-11-25 03:00:00 4.9 5 Oeste 10 Oeste 0 -- -- 87
2018-11-25 02:00:00 4.6 7 Oeste 18 Oeste 0 -- -- 87
2018-11-25 01:00:00 4.8 8 Oeste 14 Oeste 0 -- -- 85
2018-11-25 00:00:00 5 9 Oeste 16 Oeste 0 -- -- 86
2018-11-24 23:00:00 4.9 6 Oeste 13 Oeste 0 -- -- 85
2018-11-24 22:00:00 5.2 8 Oeste 16 Oeste 0 -- -- 81
2018-11-24 21:00:00 6 3 Oeste 9 Oeste 0 -- -- 77
2018-11-24 20:00:00 6.7 6 Oeste 16 Noroeste 0 -- -- 73
2018-11-24 19:00:00 7.7 10 Noroeste 17 Noroeste 0 -- -- 71
2018-11-24 18:00:00 9.3 8 Oeste 19 Oeste 0 -- -- 64
2018-11-24 17:00:00 10.2 9 Oeste 23 Oeste 0 -- -- 59
2018-11-24 16:00:00 10.9 13 Noroeste 32 Oeste 0 -- -- 61
2018-11-24 15:00:00 11.4 11 Oeste 25 Oeste 0 -- -- 61
2018-11-24 14:00:00 10.3 13 Noroeste 32 Noroeste 0 -- -- 69
2018-11-24 13:00:00 9.4 10 Noroeste 18 Oeste 0 -- -- 73
2018-11-24 12:00:00 7.5 6 Oeste 21 Oeste 0 -- -- 82
2018-11-24 11:00:00 5.5 11 Oeste 20 Oeste 0 -- -- 88
2018-11-24 10:00:00 3 3 Sudoeste 8 Oeste 0 -- -- 96
2018-11-24 09:00:00 1.5 0 Calma 5 Noroeste 0 -- -- 95
2018-11-24 08:00:00 1.3 0 Calma 5 Sudoeste 0 -- -- 94
2018-11-24 07:00:00 1.9 2 Oeste 4 Oeste 0 -- -- 94
2018-11-24 06:00:00 2 0 Calma 5 Sudoeste 0 -- -- 94
2018-11-24 05:00:00 2.1 2 Oeste 9 Oeste 0 -- -- 93
2018-11-24 04:00:00 2.7 4 Oeste 11 Oeste 0 -- -- 92
2018-11-24 03:00:00 3.2 6 Oeste 12 Oeste 0 -- -- 92
2018-11-24 02:00:00 3.6 6 Oeste 13 Oeste 0 -- -- 90
2018-11-24 01:00:00 4.2 5 Oeste 11 Oeste 0 -- -- 88
2018-11-24 00:00:00 4.9 4 Oeste 12 Oeste 0 -- -- 87
2018-11-23 23:00:00 5.4 6 Sudoeste 13 Oeste 0 -- -- 87
2018-11-23 22:00:00 6.1 3 Oeste 8 Oeste 0 -- -- 88
2018-11-23 21:00:00 6.5 3 Oeste 6 Oeste 0 -- -- 86
2018-11-23 20:00:00 7.3 3 Oeste 14 Noroeste 0 -- -- 83
2018-11-23 19:00:00 8 4 Oeste 9 Oeste 0 -- -- 80
2018-11-23 18:00:00 9.1 5 Oeste 19 Noroeste 0 -- -- 73
2018-11-23 17:00:00 10.2 13 Noroeste 26 Noroeste 0 -- -- 70
2018-11-23 16:00:00 10.5 16 Noroeste 31 Oeste 0 -- -- 72
2018-11-23 15:00:00 11.8 17 Oeste 36 Oeste 0 -- -- 67
2018-11-23 14:00:00 11 14 Oeste 26 Oeste 0 -- -- 72
2018-11-23 13:00:00 10.9 13 Oeste 26 Noroeste 0 -- -- 78
2018-11-23 12:00:00 10.1 15 Noroeste 28 Noroeste 0 -- -- 84
2018-11-23 11:00:00 9.5 13 Oeste 22 Oeste 0 -- -- 92
2018-11-23 10:00:00 8.9 10 Oeste 17 Oeste 0 -- -- 95
2018-11-23 09:00:00 8.1 0 Calma 5 Oeste 0.8 -- -- 95
2018-11-23 08:00:00 7.9 0 Calma 4 Nordeste 0.4 -- -- 93
2018-11-23 07:00:00 7.9 2 Nordeste 10 Norte 0.2 -- -- 93
2018-11-23 06:00:00 8.1 6 Nordeste 11 Nordeste 0 -- -- 91
2018-11-23 05:00:00 8.6 3 Sudeste 13 Sur 0 -- -- 92
2018-11-23 04:00:00 8 5 Sudeste 10 Sudeste 0 -- -- 92
2018-11-23 03:00:00 8 3 Este 7 Sudeste 0 -- -- 93
2018-11-23 02:00:00 8.3 3 Este 9 Este 0 -- -- 92
2018-11-23 01:00:00 8.3 4 Nordeste 11 Nordeste 0.2 -- -- 92
2018-11-23 00:00:00 8.4 0 Calma 11 Nordeste 0.2 -- -- 91
2018-11-22 23:00:00 8.3 8 Nordeste 13 Este 0 -- -- 90
2018-11-22 22:00:00 8.7 3 Este 8 Este 0 -- -- 88
2018-11-22 21:00:00 9.3 3 Este 7 Sudeste 0 -- -- 87
2018-11-22 20:00:00 9.8 3 Este 9 Este 0 -- -- 86
2018-11-22 19:00:00 10.3 4 Nordeste 14 Nordeste 0 -- -- 85
2018-11-22 18:00:00 10.8 2 Nordeste 5 Este 0 -- -- 80
2018-11-22 17:00:00 11.3 2 Este 4 Este 0 -- -- 77
2018-11-22 16:00:00 11.8 2 Nordeste 5 Este 0 -- -- 73
2018-11-22 15:00:00 12.1 2 Norte 6 Noroeste 0 -- -- 72
2018-11-22 14:00:00 11.8 2 Este 6 Norte 0 -- -- 77
2018-11-22 13:00:00 11.1 0 Calma 6 Sur 0 -- -- 79
2018-11-22 12:00:00 10.3 0 Calma 7 Sudeste 0 -- -- 82
2018-11-22 11:00:00 8.8 0 Calma 4 Este 0 -- -- 89
2018-11-22 10:00:00 7.7 0 Calma 3 Norte 0 -- -- 92
2018-11-22 09:00:00 6.5 0 Calma 3 Noroeste 0 -- -- 93
2018-11-22 08:00:00 6.1 3 Norte 4 Norte 0 -- -- 92
2018-11-22 07:00:00 6.1 0 Calma 2 Sudoeste 0 -- -- 92
2018-11-22 06:00:00 6.1 0 Calma 3 Sudeste 0 -- -- 92
2018-11-22 05:00:00 6.3 0 Calma 4 Oeste 0 -- -- 92
2018-11-22 04:00:00 6 2 Noroeste 4 Sur 0 -- -- 92
2018-11-22 03:00:00 6.2 0 Calma 6 Noroeste 0 -- -- 91
2018-11-22 02:00:00 6.4 3 Sur 4 Sudeste 0 -- -- 91
2018-11-22 01:00:00 6.8 0 Calma 9 Oeste 0 -- -- 90
2018-11-22 00:00:00 7.6 5 Noroeste 13 Oeste 0 -- -- 88
2018-11-21 23:00:00 7.9 3 Noroeste 8 Oeste 0 -- -- 85
2018-11-21 22:00:00 8.7 4 Oeste 10 Oeste 0 -- -- 85
2018-11-21 21:00:00 8.8 3 Oeste 5 Oeste 0 -- -- 84
2018-11-21 20:00:00 9.2 3 Oeste 6 Noroeste 0 -- -- 82
2018-11-21 19:00:00 9.7 0 Calma 5 Sudoeste 0 -- -- 79
2018-11-21 18:00:00 10.9 2 Sudoeste 5 Oeste 0 -- -- 74
2018-11-21 17:00:00 12.1 4 Oeste 10 Oeste 0 -- -- 66
2018-11-21 16:00:00 12.5 5 Sudoeste 21 Noroeste 0 -- -- 65
2018-11-21 15:00:00 12.6 10 Oeste 29 Oeste 0 -- -- 65
2018-11-21 14:00:00 13.1 12 Oeste 27 Oeste 0 -- -- 65
2018-11-21 13:00:00 12.8 12 Oeste 29 Oeste 0 -- -- 67
2018-11-21 12:00:00 11.6 13 Oeste 33 Oeste 0 -- -- 72
2018-11-21 11:00:00 10.3 12 Oeste 23 Sudoeste 0 -- -- 79
2018-11-21 10:00:00 9 12 Oeste 24 Sudoeste 0 -- -- 81
2018-11-21 09:00:00 8.4 6 Sudoeste 18 Oeste 0 -- -- 81
2018-11-21 08:00:00 8.1 9 Oeste 25 Oeste 0 -- -- 82
2018-11-21 07:00:00 7.5 11 Oeste 29 Oeste 0 -- -- 82
2018-11-21 06:00:00 7.3 13 Oeste 31 Oeste 0 -- -- 82
2018-11-21 05:00:00 8 13 Oeste 32 Oeste 0 -- -- 82
2018-11-21 04:00:00 8.7 18 Oeste 40 Oeste 0 -- -- 80
2018-11-21 03:00:00 8.5 14 Oeste 31 Oeste 0 -- -- 87
2018-11-21 02:00:00 8.7 14 Oeste 36 Oeste 0 -- -- 83
2018-11-21 01:00:00 9.1 17 Oeste 33 Oeste 0 -- -- 83
2018-11-21 00:00:00 8.2 12 Oeste 23 Oeste 0 -- -- 86
2018-11-20 23:00:00 8 11 Oeste 31 Oeste 0 -- -- 83
2018-11-20 22:00:00 7.4 7 Oeste 18 Oeste 0 -- -- 84
2018-11-20 21:00:00 7.5 6 Sudoeste 26 Oeste 0 -- -- 84
2018-11-20 20:00:00 8.3 12 Oeste 37 Oeste 0 -- -- 80
2018-11-20 19:00:00 9.1 21 Oeste 42 Oeste 0 -- -- 78
2018-11-20 18:00:00 9.3 11 Oeste 26 Oeste 0.4 -- -- 93
2018-11-20 17:00:00 9.5 9 Oeste 22 Oeste 7.6 -- -- 94
2018-11-20 16:00:00 9.8 9 Noroeste 18 Noroeste 5.4 -- -- 92
2018-11-20 15:00:00 11.1 9 Noroeste 23 Sudoeste 0 -- -- 86
2018-11-20 14:00:00 11.7 8 Oeste 17 Oeste 0 -- -- 79
2018-11-20 13:00:00 11.3 13 Oeste 39 Oeste 0 -- -- 77
2018-11-20 12:00:00 11.8 17 Oeste 32 Oeste 0 -- -- 74
2018-11-20 11:00:00 11.2 11 Oeste 25 Oeste 0 -- -- 79
2018-11-20 10:00:00 10 9 Oeste 28 Oeste 0 -- -- 83
2018-11-20 09:00:00 8.9 9 Oeste 18 Oeste 0 -- -- 87
2018-11-20 08:00:00 8.7 9 Oeste 20 Oeste 0 -- -- 88
2018-11-20 07:00:00 9.3 12 Oeste 21 Oeste 0 -- -- 89
2018-11-20 06:00:00 9.5 11 Oeste 21 Oeste 0 -- -- 89
2018-11-20 05:00:00 9.3 7 Oeste 14 Oeste 0 -- -- 91
2018-11-20 04:00:00 9.2 8 Oeste 15 Oeste 0 -- -- 91
2018-11-20 03:00:00 9 7 Oeste 12 Oeste 0 -- -- 92
2018-11-20 02:00:00 8.9 5 Oeste 12 Sudoeste 0 -- -- 92
2018-11-20 01:00:00 8.9 7 Oeste 13 Oeste 0 -- -- 92
2018-11-20 00:00:00 9 4 Oeste 10 Oeste 0 -- -- 91
2018-11-19 23:00:00 9.3 4 Oeste 10 Oeste 0 -- -- 90
2018-11-19 22:00:00 9.5 6 Oeste 13 Oeste 0 -- -- 90
2018-11-19 21:00:00 9.6 7 Oeste 14 Sudoeste 0 -- -- 89
2018-11-19 20:00:00 9.7 5 Oeste 9 Oeste 0 -- -- 89
2018-11-19 19:00:00 10 2 Sudoeste 6 Sudoeste 0.2 -- -- 90
2018-11-19 18:00:00 10.3 3 Sudoeste 12 Oeste 1.8 -- -- 90
2018-11-19 17:00:00 11.4 0 Calma 7 Noroeste 0.2 -- -- 80
2018-11-19 16:00:00 11.7 2 Este 8 Sudeste 0 -- -- 78
2018-11-19 15:00:00 11.9 3 Nordeste 11 Norte 0 -- -- 73
2018-11-19 14:00:00 12.1 4 Norte 11 Norte 0 -- -- 70
2018-11-19 13:00:00 11.7 4 Nordeste 12 Nordeste 0 -- -- 74
2018-11-19 12:00:00 11 6 Norte 12 Nordeste 0 -- -- 78
2018-11-19 11:00:00 10.3 5 Norte 12 Nordeste 0 -- -- 84
2018-11-19 10:00:00 9.6 3 Nordeste 10 Nordeste 0 -- -- 90
2018-11-19 09:00:00 8.9 4 Nordeste 11 Nordeste 0.2 -- -- 93
2018-11-19 08:00:00 8.9 3 Nordeste 10 Este 0 -- -- 93
2018-11-19 07:00:00 9 6 Nordeste 14 Nordeste 0.2 -- -- 93
2018-11-19 06:00:00 9.1 6 Nordeste 15 Nordeste 0 -- -- 92
2018-11-19 05:00:00 9.2 4 Nordeste 15 Nordeste 0 -- -- 92
2018-11-19 04:00:00 9.3 6 Este 20 Nordeste 0 -- -- 92
2018-11-19 03:00:00 9.3 8 Nordeste 25 Nordeste 0 -- -- 92
2018-11-19 02:00:00 9.4 12 Nordeste 32 Nordeste 0 -- -- 92
2018-11-19 01:00:00 9.5 12 Nordeste 24 Este 0 -- -- 91
2018-11-19 00:00:00 9.7 9 Nordeste 27 Este 0 -- -- 87
2018-11-18 23:00:00 9.7 5 Este 19 Este 0 -- -- 89
2018-11-18 22:00:00 9.5 5 Este 19 Este 0 -- -- 89
2018-11-18 21:00:00 9.4 6 Este 21 Sudeste 0.2 -- -- 90
2018-11-18 20:00:00 9.6 6 Nordeste 23 Sudeste 0 -- -- 89
2018-11-18 19:00:00 9.7 9 Este 23 Este 0.8 -- -- 91
2018-11-18 18:00:00 10.1 8 Este 26 Sudeste 0 -- -- 89
2018-11-18 17:00:00 10.5 9 Este 28 Este 0 -- -- 88
2018-11-18 16:00:00 11.3 8 Este 21 Este 0 -- -- 87
2018-11-18 15:00:00 11.7 7 Este 21 Este 0 -- -- 83
2018-11-18 14:00:00 12 5 Este 18 Sudeste 0 -- -- 79
2018-11-18 13:00:00 11.8 6 Este 20 Nordeste 0 -- -- 80
2018-11-18 12:00:00 11.7 6 Este 14 Sudeste 0 -- -- 82
2018-11-18 11:00:00 11.1 6 Sudeste 14 Este 0 -- -- 87
2018-11-18 10:00:00 10.4 4 Este 14 Este 0 -- -- 89
2018-11-18 09:00:00 10 4 Nordeste 12 Este 0 -- -- 91
2018-11-18 08:00:00 9.7 3 Nordeste 14 Sudeste 0 -- -- 92
2018-11-18 07:00:00 9.6 5 Este 13 Sudeste 0 -- -- 92
2018-11-18 06:00:00 9.5 2 Nordeste 10 Sudeste 0 -- -- 91
2018-11-18 05:00:00 9.8 5 Este 14 Este 0 -- -- 90
2018-11-18 04:00:00 9.6 7 Sudeste 15 Este 0 -- -- 91
2018-11-18 03:00:00 9.6 2 Este 11 Nordeste 0 -- -- 91
2018-11-18 02:00:00 10 2 Este 14 Sudeste 0 -- -- 91
2018-11-18 01:00:00 10.1 4 Este 11 Este 0 -- -- 91
2018-11-18 00:00:00 10.4 5 Este 15 Este 0 -- -- 91
2018-11-17 23:00:00 10.6 3 Este 12 Sudeste 0 -- -- 90
2018-11-17 22:00:00 10.9 3 Este 16 Este 0 -- -- 88
2018-11-17 21:00:00 11.3 5 Este 14 Este 0 -- -- 87
2018-11-17 20:00:00 11.7 5 Este 16 Este 0 -- -- 85
2018-11-17 19:00:00 12.3 3 Este 14 Este 0 -- -- 86
2018-11-17 18:00:00 12.8 5 Este 15 Este 0 -- -- 83
2018-11-17 17:00:00 13.5 5 Este 16 Nordeste 0 -- -- 79
2018-11-17 16:00:00 14.3 6 Este 16 Sudeste 0 -- -- 75
2018-11-17 15:00:00 15.2 6 Sudeste 17 Sudeste 0 -- -- 70
2018-11-17 14:00:00 15.1 7 Sudeste 18 Sur 0 -- -- 71
2018-11-17 13:00:00 13.9 6 Este 17 Nordeste 0 -- -- 79
2018-11-17 12:00:00 13 6 Sudeste 21 Sudeste 0 -- -- 78
2018-11-17 11:00:00 12.3 6 Este 21 Este 0 -- -- 86
2018-11-17 10:00:00 11.3 5 Sudeste 12 Norte 0 -- -- 92
2018-11-17 09:00:00 10.7 2 Nordeste 11 Nordeste 0 -- -- 93
2018-11-17 08:00:00 10.6 2 Este 7 Nordeste 0 -- -- 93
2018-11-17 07:00:00 10.5 3 Nordeste 10 Nordeste 0 -- -- 93
2018-11-17 06:00:00 11 4 Nordeste 14 Nordeste 0 -- -- 93
2018-11-17 05:00:00 10.9 5 Nordeste 12 Nordeste 0 -- -- 95
2018-11-17 04:00:00 10.6 5 Nordeste 10 Nordeste 0 -- -- 95
2018-11-17 03:00:00 10.2 2 Nordeste 12 Este 0 -- -- 94
2018-11-17 02:00:00 10.3 7 Nordeste 12 Nordeste 0 -- -- 94
2018-11-17 01:00:00 10.4 3 Este 13 Nordeste 0 -- -- 94
2018-11-17 00:00:00 10.9 4 Nordeste 15 Nordeste 0 -- -- 94
2018-11-16 23:00:00 11 8 Nordeste 14 Nordeste 0 -- -- 92
2018-11-16 22:00:00 12 4 Este 20 Sudeste 0 -- -- 90
2018-11-16 21:00:00 12.1 4 Este 22 Nordeste 0 -- -- 90
2018-11-16 20:00:00 12.2 7 Este 22 Este 0 -- -- 87
2018-11-16 19:00:00 12.7 8 Este 20 Nordeste 0 -- -- 87
2018-11-16 18:00:00 13.1 7 Este 24 Este 0 -- -- 84
2018-11-16 17:00:00 14 7 Este 28 Sudeste 0 -- -- 80
2018-11-16 16:00:00 15.5 11 Este 27 Sudeste 0 -- -- 73
2018-11-16 15:00:00 15.4 10 Este 26 Nordeste 0 -- -- 78
2018-11-16 14:00:00 14.8 9 Este 22 Este 0 -- -- 79
2018-11-16 13:00:00 14.1 7 Este 19 Este 0 -- -- 83
2018-11-16 12:00:00 14 7 Este 24 Sudeste 0 -- -- 82
2018-11-16 11:00:00 14.2 7 Este 20 Este 0 -- -- 84
2018-11-16 10:00:00 13.8 9 Este 19 Sudeste 0 -- -- 84
2018-11-16 09:00:00 11.9 5 Este 18 Este 0 -- -- 94
2018-11-16 08:00:00 11.5 5 Este 18 Este 0 -- -- 94
2018-11-16 07:00:00 11.8 6 Este 21 Este 0 -- -- 93
2018-11-16 06:00:00 12.2 6 Este 19 Nordeste 0 -- -- 93
2018-11-16 05:00:00 12.3 4 Este 17 Sudeste 0 -- -- 94
2018-11-16 04:00:00 12.1 7 Nordeste 15 Nordeste 0 -- -- 95
2018-11-16 03:00:00 12.2 8 Nordeste 14 Nordeste 0 -- -- 95
2018-11-16 02:00:00 12.2 4 Nordeste 14 Este 0 -- -- 94
2018-11-16 01:00:00 12.1 4 Nordeste 14 Este 0 -- -- 93
2018-11-16 00:00:00 12.3 4 Este 19 Este 0 -- -- 93
2018-11-15 23:00:00 12.5 5 Este 14 Nordeste 0 -- -- 92
2018-11-15 22:00:00 12.5 3 Este 15 Nordeste 0 -- -- 94
2018-11-15 21:00:00 12.4 4 Nordeste 15 Sudeste 0 -- -- 93
2018-11-15 20:00:00 12.5 5 Este 21 Este 0 -- -- 92
2018-11-15 19:00:00 12.6 6 Este 24 Este 0 -- -- 92
2018-11-15 18:00:00 13 5 Este 21 Sudeste 0 -- -- 91
2018-11-15 17:00:00 13.5 7 Este 23 Sudeste 0 -- -- 88
2018-11-15 16:00:00 14 7 Este 22 Sudeste 0 -- -- 85
2018-11-15 15:00:00 14.3 10 Sudeste 21 Este 0.2 -- -- 84
2018-11-15 14:00:00 14 8 Este 20 Sudeste 0 -- -- 87
2018-11-15 13:00:00 14.1 4 Este 21 Sudeste 0 -- -- 87
2018-11-15 12:00:00 13.4 5 Este 19 Este 0 -- -- 90
2018-11-15 11:00:00 12.5 6 Este 23 Sudeste 0 -- -- 94
2018-11-15 10:00:00 11.9 6 Nordeste 13 Nordeste 1.8 -- -- 95
2018-11-15 09:00:00 11.7 6 Este 16 Este 0.2 -- -- 94
2018-11-15 08:00:00 11.4 6 Nordeste 17 Nordeste 0 -- -- 94
2018-11-15 07:00:00 11.6 6 Este 19 Este 0 -- -- 92
2018-11-15 06:00:00 11.8 6 Nordeste 21 Nordeste 0 -- -- 91
2018-11-15 05:00:00 12 6 Este 22 Este 0 -- -- 90
2018-11-15 04:00:00 11.8 5 Nordeste 26 Este 0 -- -- 90
2018-11-15 03:00:00 12.1 12 Este 36 Sudeste 0 -- -- 89
2018-11-15 02:00:00 12.1 8 Este 21 Sudeste 0 -- -- 90
2018-11-15 01:00:00 12.2 8 Nordeste 20 Este 0 -- -- 90
2018-11-15 00:00:00 12.3 9 Este 21 Este 0 -- -- 89
2018-11-14 23:00:00 12.4 6 Este 18 Este 0 -- -- 89
2018-11-14 22:00:00 12.5 8 Este 22 Este 0 -- -- 87
2018-11-14 21:00:00 12.4 7 Nordeste 20 Nordeste 0 -- -- 87
2018-11-14 20:00:00 12.9 8 Este 23 Sudeste 0 -- -- 85
2018-11-14 19:00:00 13.2 7 Este 27 Sudeste 0 -- -- 85
2018-11-14 18:00:00 13.5 9 Este 27 Sudeste 0 -- -- 85
2018-11-14 17:00:00 14.5 10 Este 26 Este 0 -- -- 80
2018-11-14 16:00:00 15.3 9 Este 29 Sudeste 0 -- -- 81
2018-11-14 15:00:00 15.1 12 Este 27 Sudeste 0 -- -- 80
2018-11-14 14:00:00 15.7 12 Este 24 Este 0 -- -- 76
2018-11-14 13:00:00 14.9 8 Nordeste 21 Sudeste 0 -- -- 82
2018-11-14 12:00:00 15.3 10 Este 29 Sudeste 0 -- -- 78
2018-11-14 11:00:00 14.6 9 Este 25 Sudeste 0 -- -- 82
2018-11-14 10:00:00 14.2 9 Este 25 Sudeste 0 -- -- 84
2018-11-14 09:00:00 12.6 6 Nordeste 17 Nordeste 0 -- -- 92
2018-11-14 08:00:00 12.2 4 Este 21 Este 0 -- -- 92
2018-11-14 07:00:00 12.3 5 Este 17 Este 0 -- -- 94
2018-11-14 06:00:00 11.5 8 Nordeste 15 Nordeste 0 -- -- 94
2018-11-14 05:00:00 11.4 5 Nordeste 13 Sudeste 0 -- -- 91
2018-11-14 04:00:00 12 4 Este 19 Este 0 -- -- 92
2018-11-14 03:00:00 12.2 6 Este 21 Sudeste 0 -- -- 92
2018-11-14 02:00:00 12.3 5 Este 14 Sudeste 0 -- -- 91
2018-11-14 01:00:00 12.4 5 Este 16 Sudeste 0 -- -- 91
2018-11-14 00:00:00 12.4 6 Este 19 Nordeste 0 -- -- 91
2018-11-13 23:00:00 12.3 7 Nordeste 17 Nordeste 0 -- -- 90
2018-11-13 22:00:00 12.6 8 Nordeste 24 Este 0 -- -- 89
2018-11-13 21:00:00 12.8 7 Este 22 Este 0 -- -- 88
2018-11-13 20:00:00 13.1 10 Este 23 Este 0 -- -- 88
2018-11-13 19:00:00 13.3 8 Nordeste 22 Este 0 -- -- 87
2018-11-13 18:00:00 13.6 8 Este 27 Nordeste 0 -- -- 86
2018-11-13 17:00:00 14.2 9 Este 24 Este 0 -- -- 83
2018-11-13 16:00:00 14.6 10 Este 27 Nordeste 0 -- -- 82
2018-11-13 15:00:00 15.2 8 Este 24 Sudeste 0 -- -- 79
2018-11-13 14:00:00 14.8 9 Este 26 Este 0 -- -- 79
2018-11-13 13:00:00 14.7 11 Este 26 Sudeste 0 -- -- 80
2018-11-13 12:00:00 14.8 8 Este 26 Sudeste 0 -- -- 78
2018-11-13 11:00:00 13.6 5 Este 13 Este 0 -- -- 90
2018-11-13 10:00:00 12.2 5 Este 15 Sudeste 0 -- -- 96
2018-11-13 09:00:00 9.3 2 Oeste 8 Este 0 -- -- 96
2018-11-13 08:00:00 9.3 0 Calma 8 Este 0 -- -- 96
2018-11-13 07:00:00 9.5 4 Nordeste 12 Norte 0 -- -- 96
2018-11-13 06:00:00 9.4 0 Calma 7 Nordeste 0 -- -- 95
2018-11-13 05:00:00 9.2 0 Calma 3 Sudeste 0 -- -- 95
2018-11-13 04:00:00 9.4 0 Calma 6 Noroeste 0 -- -- 94
2018-11-13 03:00:00 10.2 2 Sur 5 Este 0 -- -- 95
2018-11-13 02:00:00 10.7 0 Calma 17 Nordeste 0 -- -- 95
2018-11-13 01:00:00 11 8 Nordeste 14 Nordeste 0 -- -- 94
2018-11-13 00:00:00 11 8 Nordeste 15 Este 0 -- -- 94
2018-11-12 23:00:00 10.8 6 Nordeste 15 Nordeste 0 -- -- 93
2018-11-12 22:00:00 11 4 Nordeste 17 Nordeste 0 -- -- 94
2018-11-12 21:00:00 11.4 4 Este 15 Este 0 -- -- 93
2018-11-12 20:00:00 11.9 8 Nordeste 16 Nordeste 0 -- -- 91
2018-11-12 19:00:00 12.6 9 Nordeste 18 Este 0 -- -- 88
2018-11-12 18:00:00 13.7 7 Nordeste 22 Nordeste 0 -- -- 83
2018-11-12 17:00:00 14.9 8 Nordeste 27 Nordeste 0 -- -- 80
2018-11-12 16:00:00 16.3 9 Nordeste 29 Nordeste 0 -- -- 75
2018-11-12 15:00:00 16.6 10 Nordeste 26 Nordeste 0 -- -- 75
2018-11-12 14:00:00 16.4 5 Este 22 Este 0 -- -- 72
2018-11-12 13:00:00 16.1 10 Sudeste 26 Sudeste 0 -- -- 73
2018-11-12 12:00:00 14.5 12 Sudeste 26 Este 0 -- -- 77
2018-11-12 11:00:00 12.1 6 Este 18 Este 0 -- -- 92
2018-11-12 10:00:00 8.6 3 Este 13 Nordeste 0 -- -- 97
2018-11-12 09:00:00 6.2 6 Nordeste 16 Nordeste 0 -- -- 96
2018-11-12 08:00:00 6 3 Este 7 Este 0 -- -- 95
2018-11-12 07:00:00 6.2 3 Nordeste 8 Nordeste 0 -- -- 93
2018-11-12 06:00:00 6.6 3 Nordeste 6 Norte 0 -- -- 92
2018-11-12 05:00:00 7 0 Calma 4 Sudoeste 0 -- -- 92
2018-11-12 04:00:00 7.5 0 Calma 9 Nordeste 0 -- -- 91
2018-11-12 03:00:00 8.2 3 Nordeste 11 Nordeste 0 -- -- 89
2018-11-12 02:00:00 8.5 6 Nordeste 10 Norte 0 -- -- 87
2018-11-12 01:00:00 9.7 3 Norte 9 Nordeste 0 -- -- 82
2018-11-12 00:00:00 10.2 4 Nordeste 8 Este 0 -- -- 83
2018-11-11 23:00:00 10.2 3 Este 5 Nordeste 0 -- -- 86
2018-11-11 22:00:00 11.2 0 Calma 5 Sudeste 0 -- -- 80
2018-11-11 21:00:00 12.2 3 Este 10 Sudeste 0 -- -- 76
2018-11-11 20:00:00 13 0 Calma 8 Nordeste 0 -- -- 77
2018-11-11 19:00:00 14.4 5 Nordeste 12 Nordeste 0 -- -- 79
2018-11-11 18:00:00 16.3 7 Nordeste 12 Nordeste 0 -- -- 72
2018-11-11 17:00:00 18.4 5 Nordeste 13 Nordeste 0 -- -- 63
2018-11-11 16:00:00 19.9 3 Este 11 Noroeste 0 -- -- 57
2018-11-11 15:00:00 19.2 5 Noroeste 11 Sudoeste 0 -- -- 58
2018-11-11 14:00:00 18.4 7 Sudoeste 16 Oeste 0 -- -- 61
2018-11-11 13:00:00 17.4 11 Noroeste 20 Noroeste 0 -- -- 65
2018-11-11 12:00:00 16.1 10 Oeste 24 Sudoeste 0 -- -- 70
2018-11-11 11:00:00 15.2 10 Oeste 24 Oeste 0 -- -- 76
2018-11-11 10:00:00 13.5 12 Oeste 28 Oeste 0 -- -- 80
2018-11-11 09:00:00 11.8 13 Oeste 23 Oeste 0 -- -- 86
2018-11-11 08:00:00 10.7 8 Oeste 18 Oeste 0 -- -- 88
2018-11-11 07:00:00 10.2 5 Oeste 10 Oeste 0 -- -- 90
2018-11-11 06:00:00 9.7 6 Oeste 11 Oeste 0 -- -- 91
2018-11-11 05:00:00 9.4 5 Oeste 10 Oeste 0 -- -- 91
2018-11-11 04:00:00 9.2 0 Calma 11 Oeste 0 -- -- 89
2018-11-11 03:00:00 9.8 5 Oeste 14 Oeste 0 -- -- 88
2018-11-11 02:00:00 10.3 10 Oeste 16 Oeste 0 -- -- 86
2018-11-11 01:00:00 10.2 9 Oeste 16 Oeste 0 -- -- 86
2018-11-11 00:00:00 10.2 9 Oeste 15 Oeste 0 -- -- 86
2018-11-10 23:00:00 10.3 8 Oeste 21 Oeste 0 -- -- 85
2018-11-10 22:00:00 10.6 11 Oeste 22 Sudoeste 0 -- -- 83
2018-11-10 21:00:00 10.5 10 Oeste 24 Oeste 0 -- -- 83
2018-11-10 20:00:00 10.9 13 Oeste 24 Oeste 0 -- -- 82
2018-11-10 19:00:00 11.3 13 Oeste 31 Oeste 0 -- -- 80
2018-11-10 18:00:00 11.8 14 Oeste 30 Oeste 0 -- -- 78
2018-11-10 17:00:00 12.1 16 Oeste 32 Oeste 0 -- -- 77
2018-11-10 16:00:00 12.6 12 Oeste 35 Noroeste 0 -- -- 74
2018-11-10 15:00:00 12.4 15 Oeste 38 Oeste 0 -- -- 73
2018-11-10 14:00:00 12.7 20 Oeste 38 Oeste 0 -- -- 72
2018-11-10 13:00:00 11.7 13 Oeste 34 Oeste 0 -- -- 76
2018-11-10 12:00:00 11.1 11 Oeste 30 Oeste 0 -- -- 79
2018-11-10 11:00:00 10.9 14 Oeste 32 Oeste 0 -- -- 78
2018-11-10 10:00:00 9.8 8 Oeste 20 Oeste 0 -- -- 83
2018-11-10 09:00:00 9.4 12 Oeste 25 Oeste 0 -- -- 83
2018-11-10 08:00:00 9 12 Oeste 19 Oeste 0 -- -- 84
2018-11-10 07:00:00 8.9 8 Oeste 18 Oeste 0 -- -- 84
2018-11-10 06:00:00 8.8 9 Oeste 23 Oeste 0 -- -- 84
2018-11-10 05:00:00 8.7 11 Oeste 19 Oeste 0 -- -- 84
2018-11-10 04:00:00 8.6 7 Oeste 14 Sudoeste 0 -- -- 84
2018-11-10 03:00:00 8.3 8 Oeste 18 Oeste 0 -- -- 83
2018-11-10 02:00:00 8 9 Oeste 21 Oeste 0 -- -- 83
2018-11-10 01:00:00 7.5 8 Oeste 16 Oeste 0 -- -- 83
2018-11-10 00:00:00 7.8 5 Oeste 14 Oeste 0 -- -- 81
2018-11-09 23:00:00 8 6 Oeste 17 Oeste 0 -- -- 80
2018-11-09 22:00:00 7.9 8 Oeste 19 Oeste 0 -- -- 80
2018-11-09 21:00:00 7.7 6 Oeste 16 Oeste 0 -- -- 75
2018-11-09 20:00:00 7.6 6 Oeste 14 Oeste 0 -- -- 73
2018-11-09 19:00:00 7.8 5 Oeste 21 Noroeste 0 -- -- 73
2018-11-09 18:00:00 9.2 13 Noroeste 38 Noroeste 0 -- -- 69
2018-11-09 17:00:00 10.8 23 Noroeste 46 Noroeste 0 -- -- 62
2018-11-09 16:00:00 10.9 24 Noroeste 42 Noroeste 0 -- -- 63
2018-11-09 15:00:00 10.4 17 Noroeste 43 Noroeste 0 -- -- 69
2018-11-09 14:00:00 10.1 23 Noroeste 39 Oeste 0 -- -- 71
2018-11-09 13:00:00 9.2 21 Noroeste 41 Noroeste 0 -- -- 75
2018-11-09 12:00:00 8.4 21 Noroeste 40 Noroeste 0 -- -- 80
2018-11-09 11:00:00 7.1 17 Noroeste 36 Oeste 0 -- -- 83
2018-11-09 10:00:00 6.7 18 Oeste 35 Noroeste 0 -- -- 84
2018-11-09 09:00:00 6.4 17 Oeste 32 Oeste 0 -- -- 87
2018-11-09 08:00:00 5.8 12 Oeste 32 Oeste 0 -- -- 89
2018-11-09 07:00:00 6.1 17 Oeste 32 Oeste 0 -- -- 86
2018-11-09 06:00:00 6.6 14 Oeste 35 Oeste 0 -- -- 89
2018-11-09 05:00:00 6.9 17 Oeste 30 Oeste 0 -- -- 88
2018-11-09 04:00:00 7.3 18 Oeste 38 Oeste 0 -- -- 86
2018-11-09 03:00:00 8.1 14 Oeste 24 Sudoeste 0 -- -- 88
2018-11-09 02:00:00 8.9 13 Oeste 29 Noroeste 3.2 -- -- 91
2018-11-09 01:00:00 9.6 13 Oeste 24 Oeste 0.4 -- -- 92
2018-11-09 00:00:00 9.6 8 Oeste 13 Oeste 0 -- -- 93